sensor_id;sensor_type;location;lat;lon;timestamp;P1;durP1;ratioP1;P2;durP2;ratioP2
19776;SDS011;10047;42.490;26.012;2023-12-04T00:01:47;1.50;;;1.30;;
19776;SDS011;10047;42.490;26.012;2023-12-04T00:04:13;1.60;;;1.23;;
19776;SDS011;10047;42.490;26.012;2023-12-04T00:06:39;2.63;;;1.15;;
19776;SDS011;10047;42.490;26.012;2023-12-04T00:09:05;1.40;;;1.17;;
19776;SDS011;10047;42.490;26.012;2023-12-04T00:11:31;1.52;;;1.20;;
19776;SDS011;10047;42.490;26.012;2023-12-04T00:13:57;1.70;;;1.42;;
19776;SDS011;10047;42.490;26.012;2023-12-04T00:16:23;1.80;;;1.08;;
19776;SDS011;10047;42.490;26.012;2023-12-04T00:18:48;1.70;;;1.10;;
19776;SDS011;10047;42.490;26.012;2023-12-04T00:21:14;1.58;;;0.90;;
19776;SDS011;10047;42.490;26.012;2023-12-04T00:23:40;1.38;;;1.15;;
19776;SDS011;10047;42.490;26.012;2023-12-04T00:26:05;2.15;;;1.00;;
19776;SDS011;10047;42.490;26.012;2023-12-04T00:28:31;1.10;;;0.88;;
19776;SDS011;10047;42.490;26.012;2023-12-04T00:30:57;1.85;;;1.17;;
19776;SDS011;10047;42.490;26.012;2023-12-04T00:33:25;1.65;;;1.30;;
19776;SDS011;10047;42.490;26.012;2023-12-04T00:35:50;2.35;;;1.40;;
19776;SDS011;10047;42.490;26.012;2023-12-04T00:38:16;2.17;;;1.52;;
19776;SDS011;10047;42.490;26.012;2023-12-04T00:40:41;1.90;;;1.40;;
19776;SDS011;10047;42.490;26.012;2023-12-04T00:43:07;2.63;;;1.20;;
19776;SDS011;10047;42.490;26.012;2023-12-04T00:45:32;2.50;;;1.08;;
19776;SDS011;10047;42.490;26.012;2023-12-04T00:47:58;2.13;;;1.55;;
19776;SDS011;10047;42.490;26.012;2023-12-04T00:50:23;2.30;;;1.20;;
19776;SDS011;10047;42.490;26.012;2023-12-04T00:52:49;3.17;;;2.15;;
19776;SDS011;10047;42.490;26.012;2023-12-04T00:55:14;2.25;;;1.60;;
19776;SDS011;10047;42.490;26.012;2023-12-04T00:57:40;2.42;;;2.00;;
19776;SDS011;10047;42.490;26.012;2023-12-04T01:00:05;2.92;;;2.20;;
19776;SDS011;10047;42.490;26.012;2023-12-04T01:02:31;2.78;;;2.47;;
19776;SDS011;10047;42.490;26.012;2023-12-04T01:04:57;3.75;;;2.50;;
19776;SDS011;10047;42.490;26.012;2023-12-04T01:07:22;4.47;;;3.13;;
19776;SDS011;10047;42.490;26.012;2023-12-04T01:09:48;5.03;;;3.50;;
19776;SDS011;10047;42.490;26.012;2023-12-04T01:12:14;4.25;;;3.20;;
19776;SDS011;10047;42.490;26.012;2023-12-04T01:14:39;4.55;;;3.20;;
19776;SDS011;10047;42.490;26.012;2023-12-04T01:17:05;4.80;;;3.63;;
19776;SDS011;10047;42.490;26.012;2023-12-04T01:19:31;4.93;;;3.50;;
19776;SDS011;10047;42.490;26.012;2023-12-04T01:21:57;6.43;;;3.75;;
19776;SDS011;10047;42.490;26.012;2023-12-04T01:24:22;4.13;;;3.70;;
19776;SDS011;10047;42.490;26.012;2023-12-04T01:26:48;5.05;;;3.97;;
19776;SDS011;10047;42.490;26.012;2023-12-04T01:29:13;5.72;;;4.15;;
19776;SDS011;10047;42.490;26.012;2023-12-04T01:31:39;6.22;;;4.25;;
19776;SDS011;10047;42.490;26.012;2023-12-04T01:34:04;5.85;;;4.40;;
19776;SDS011;10047;42.490;26.012;2023-12-04T01:36:30;5.53;;;4.32;;
19776;SDS011;10047;42.490;26.012;2023-12-04T01:38:55;6.82;;;4.80;;
19776;SDS011;10047;42.490;26.012;2023-12-04T01:41:21;5.60;;;4.50;;
19776;SDS011;10047;42.490;26.012;2023-12-04T01:43:46;6.05;;;4.30;;
19776;SDS011;10047;42.490;26.012;2023-12-04T01:46:12;6.20;;;4.57;;
19776;SDS011;10047;42.490;26.012;2023-12-04T01:48:40;6.10;;;4.43;;
19776;SDS011;10047;42.490;26.012;2023-12-04T01:51:06;6.63;;;4.93;;
19776;SDS011;10047;42.490;26.012;2023-12-04T01:53:35;6.43;;;5.10;;
19776;SDS011;10047;42.490;26.012;2023-12-04T01:56:03;5.97;;;4.63;;
19776;SDS011;10047;42.490;26.012;2023-12-04T01:58:29;6.45;;;4.60;;
19776;SDS011;10047;42.490;26.012;2023-12-04T02:00:55;6.28;;;4.78;;
19776;SDS011;10047;42.490;26.012;2023-12-04T02:03:20;6.15;;;4.90;;
19776;SDS011;10047;42.490;26.012;2023-12-04T02:05:46;5.78;;;4.60;;
19776;SDS011;10047;42.490;26.012;2023-12-04T02:08:12;6.30;;;5.05;;
19776;SDS011;10047;42.490;26.012;2023-12-04T02:10:38;6.63;;;5.13;;
19776;SDS011;10047;42.490;26.012;2023-12-04T02:13:04;5.43;;;4.20;;
19776;SDS011;10047;42.490;26.012;2023-12-04T02:15:30;6.18;;;4.40;;
19776;SDS011;10047;42.490;26.012;2023-12-04T02:17:55;5.45;;;4.47;;
19776;SDS011;10047;42.490;26.012;2023-12-04T02:20:24;6.68;;;4.80;;
19776;SDS011;10047;42.490;26.012;2023-12-04T02:22:56;6.47;;;5.00;;
19776;SDS011;10047;42.490;26.012;2023-12-04T02:25:21;6.25;;;4.65;;
19776;SDS011;10047;42.490;26.012;2023-12-04T02:27:49;7.60;;;5.00;;
19776;SDS011;10047;42.490;26.012;2023-12-04T02:30:16;5.63;;;4.53;;
19776;SDS011;10047;42.490;26.012;2023-12-04T02:32:45;6.10;;;4.93;;
19776;SDS011;10047;42.490;26.012;2023-12-04T02:35:11;6.07;;;4.78;;
19776;SDS011;10047;42.490;26.012;2023-12-04T02:37:39;6.05;;;4.65;;
19776;SDS011;10047;42.490;26.012;2023-12-04T02:40:06;5.63;;;4.63;;
19776;SDS011;10047;42.490;26.012;2023-12-04T02:42:32;5.93;;;4.85;;
19776;SDS011;10047;42.490;26.012;2023-12-04T02:44:58;6.60;;;4.80;;
19776;SDS011;10047;42.490;26.012;2023-12-04T02:47:24;6.63;;;5.28;;
19776;SDS011;10047;42.490;26.012;2023-12-04T02:49:50;6.45;;;5.10;;
19776;SDS011;10047;42.490;26.012;2023-12-04T02:52:16;6.90;;;5.20;;
19776;SDS011;10047;42.490;26.012;2023-12-04T02:54:41;7.13;;;5.18;;
19776;SDS011;10047;42.490;26.012;2023-12-04T02:57:07;6.95;;;5.13;;
19776;SDS011;10047;42.490;26.012;2023-12-04T02:59:32;8.00;;;5.32;;
19776;SDS011;10047;42.490;26.012;2023-12-04T03:01:58;7.22;;;5.68;;
19776;SDS011;10047;42.490;26.012;2023-12-04T03:04:23;5.82;;;4.47;;
19776;SDS011;10047;42.490;26.012;2023-12-04T03:06:49;6.90;;;4.95;;
19776;SDS011;10047;42.490;26.012;2023-12-04T03:09:15;7.18;;;4.85;;
19776;SDS011;10047;42.490;26.012;2023-12-04T03:11:40;6.10;;;4.97;;
19776;SDS011;10047;42.490;26.012;2023-12-04T03:14:06;6.97;;;5.30;;
19776;SDS011;10047;42.490;26.012;2023-12-04T03:16:32;7.40;;;5.45;;
19776;SDS011;10047;42.490;26.012;2023-12-04T03:18:58;7.82;;;5.80;;
19776;SDS011;10047;42.490;26.012;2023-12-04T03:21:24;8.48;;;5.95;;
19776;SDS011;10047;42.490;26.012;2023-12-04T03:23:49;7.78;;;5.63;;
19776;SDS011;10047;42.490;26.012;2023-12-04T03:26:15;8.20;;;5.45;;
19776;SDS011;10047;42.490;26.012;2023-12-04T03:28:40;9.20;;;5.40;;
19776;SDS011;10047;42.490;26.012;2023-12-04T03:31:06;5.72;;;4.78;;
19776;SDS011;10047;42.490;26.012;2023-12-04T03:33:31;6.80;;;4.88;;
19776;SDS011;10047;42.490;26.012;2023-12-04T03:35:58;6.30;;;4.78;;
19776;SDS011;10047;42.490;26.012;2023-12-04T03:38:24;6.40;;;5.10;;
19776;SDS011;10047;42.490;26.012;2023-12-04T03:40:50;7.05;;;4.90;;
19776;SDS011;10047;42.490;26.012;2023-12-04T03:43:16;7.80;;;5.35;;
19776;SDS011;10047;42.490;26.012;2023-12-04T03:45:42;7.00;;;5.47;;
19776;SDS011;10047;42.490;26.012;2023-12-04T03:48:07;7.63;;;5.25;;
19776;SDS011;10047;42.490;26.012;2023-12-04T03:50:33;8.10;;;6.28;;
19776;SDS011;10047;42.490;26.012;2023-12-04T03:52:58;8.57;;;6.65;;
19776;SDS011;10047;42.490;26.012;2023-12-04T03:55:24;7.95;;;5.88;;
19776;SDS011;10047;42.490;26.012;2023-12-04T03:57:49;9.18;;;5.72;;
19776;SDS011;10047;42.490;26.012;2023-12-04T04:00:15;8.20;;;6.07;;
19776;SDS011;10047;42.490;26.012;2023-12-04T04:02:42;6.32;;;5.18;;
19776;SDS011;10047;42.490;26.012;2023-12-04T04:05:08;8.20;;;5.75;;
19776;SDS011;10047;42.490;26.012;2023-12-04T04:07:34;7.28;;;5.63;;
19776;SDS011;10047;42.490;26.012;2023-12-04T04:10:00;6.63;;;5.32;;
19776;SDS011;10047;42.490;26.012;2023-12-04T04:12:28;7.25;;;4.90;;
19776;SDS011;10047;42.490;26.012;2023-12-04T04:14:54;6.55;;;4.88;;
19776;SDS011;10047;42.490;26.012;2023-12-04T04:17:20;5.78;;;4.20;;
19776;SDS011;10047;42.490;26.012;2023-12-04T04:19:45;5.50;;;4.10;;
19776;SDS011;10047;42.490;26.012;2023-12-04T04:22:11;5.65;;;4.07;;
19776;SDS011;10047;42.490;26.012;2023-12-04T04:24:36;5.40;;;4.20;;
19776;SDS011;10047;42.490;26.012;2023-12-04T04:27:02;4.97;;;3.65;;
19776;SDS011;10047;42.490;26.012;2023-12-04T04:29:27;6.53;;;3.80;;
19776;SDS011;10047;42.490;26.012;2023-12-04T04:31:53;5.55;;;4.20;;
19776;SDS011;10047;42.490;26.012;2023-12-04T04:34:19;5.63;;;4.18;;
19776;SDS011;10047;42.490;26.012;2023-12-04T04:36:46;5.57;;;4.28;;
19776;SDS011;10047;42.490;26.012;2023-12-04T04:39:12;5.93;;;4.15;;
19776;SDS011;10047;42.490;26.012;2023-12-04T04:41:38;5.78;;;4.15;;
19776;SDS011;10047;42.490;26.012;2023-12-04T04:44:05;5.53;;;3.97;;
19776;SDS011;10047;42.490;26.012;2023-12-04T04:46:30;5.38;;;3.88;;
19776;SDS011;10047;42.490;26.012;2023-12-04T04:48:56;5.35;;;4.10;;
19776;SDS011;10047;42.490;26.012;2023-12-04T04:51:22;5.32;;;3.78;;
19776;SDS011;10047;42.490;26.012;2023-12-04T04:53:47;5.05;;;4.07;;
19776;SDS011;10047;42.490;26.012;2023-12-04T04:56:13;5.20;;;4.07;;
19776;SDS011;10047;42.490;26.012;2023-12-04T04:58:39;5.50;;;4.10;;
19776;SDS011;10047;42.490;26.012;2023-12-04T05:01:05;4.93;;;3.83;;
19776;SDS011;10047;42.490;26.012;2023-12-04T05:03:31;5.85;;;3.92;;
19776;SDS011;10047;42.490;26.012;2023-12-04T05:05:56;4.13;;;3.50;;
19776;SDS011;10047;42.490;26.012;2023-12-04T05:08:22;5.50;;;4.10;;
19776;SDS011;10047;42.490;26.012;2023-12-04T05:10:47;5.85;;;4.10;;
19776;SDS011;10047;42.490;26.012;2023-12-04T05:13:13;6.47;;;4.70;;
19776;SDS011;10047;42.490;26.012;2023-12-04T05:15:39;5.43;;;4.30;;
19776;SDS011;10047;42.490;26.012;2023-12-04T05:18:04;5.65;;;4.50;;
19776;SDS011;10047;42.490;26.012;2023-12-04T05:20:30;5.38;;;4.28;;
19776;SDS011;10047;42.490;26.012;2023-12-04T05:22:56;6.10;;;4.10;;
19776;SDS011;10047;42.490;26.012;2023-12-04T05:25:22;5.90;;;3.85;;
19776;SDS011;10047;42.490;26.012;2023-12-04T05:27:47;5.55;;;4.10;;
19776;SDS011;10047;42.490;26.012;2023-12-04T05:30:13;6.50;;;5.35;;
19776;SDS011;10047;42.490;26.012;2023-12-04T05:32:38;6.18;;;3.67;;
19776;SDS011;10047;42.490;26.012;2023-12-04T05:35:04;5.68;;;3.90;;
19776;SDS011;10047;42.490;26.012;2023-12-04T05:37:30;5.43;;;3.45;;
19776;SDS011;10047;42.490;26.012;2023-12-04T05:39:56;6.97;;;4.32;;
19776;SDS011;10047;42.490;26.012;2023-12-04T05:42:21;6.63;;;3.90;;
19776;SDS011;10047;42.490;26.012;2023-12-04T05:44:47;6.88;;;3.95;;
19776;SDS011;10047;42.490;26.012;2023-12-04T05:47:12;5.28;;;4.20;;
19776;SDS011;10047;42.490;26.012;2023-12-04T05:49:38;5.53;;;4.40;;
19776;SDS011;10047;42.490;26.012;2023-12-04T05:52:03;6.07;;;4.55;;
19776;SDS011;10047;42.490;26.012;2023-12-04T05:54:29;6.18;;;4.97;;
19776;SDS011;10047;42.490;26.012;2023-12-04T05:56:55;7.88;;;4.93;;
19776;SDS011;10047;42.490;26.012;2023-12-04T05:59:20;7.38;;;5.05;;
19776;SDS011;10047;42.490;26.012;2023-12-04T06:01:46;6.75;;;4.70;;
19776;SDS011;10047;42.490;26.012;2023-12-04T06:04:11;4.97;;;4.13;;
19776;SDS011;10047;42.490;26.012;2023-12-04T06:06:37;6.10;;;4.45;;
19776;SDS011;10047;42.490;26.012;2023-12-04T06:09:08;6.30;;;4.47;;
19776;SDS011;10047;42.490;26.012;2023-12-04T06:11:33;9.25;;;6.00;;
19776;SDS011;10047;42.490;26.012;2023-12-04T06:13:59;15.63;;;9.70;;
19776;SDS011;10047;42.490;26.012;2023-12-04T06:16:24;11.68;;;7.80;;
19776;SDS011;10047;42.490;26.012;2023-12-04T06:18:50;7.47;;;5.53;;
19776;SDS011;10047;42.490;26.012;2023-12-04T06:21:15;11.25;;;8.40;;
19776;SDS011;10047;42.490;26.012;2023-12-04T06:23:41;12.25;;;9.75;;
19776;SDS011;10047;42.490;26.012;2023-12-04T06:26:07;9.88;;;7.25;;
19776;SDS011;10047;42.490;26.012;2023-12-04T06:28:33;7.15;;;4.88;;
19776;SDS011;10047;42.490;26.012;2023-12-04T06:30:59;7.10;;;5.00;;
19776;SDS011;10047;42.490;26.012;2023-12-04T06:33:25;5.57;;;4.53;;
19776;SDS011;10047;42.490;26.012;2023-12-04T06:35:51;6.13;;;4.75;;
19776;SDS011;10047;42.490;26.012;2023-12-04T06:38:17;7.25;;;5.32;;
19776;SDS011;10047;42.490;26.012;2023-12-04T06:40:44;5.60;;;4.65;;
19776;SDS011;10047;42.490;26.012;2023-12-04T06:43:10;8.45;;;5.80;;
19776;SDS011;10047;42.490;26.012;2023-12-04T06:45:35;7.28;;;5.13;;
19776;SDS011;10047;42.490;26.012;2023-12-04T06:48:01;6.75;;;4.85;;
19776;SDS011;10047;42.490;26.012;2023-12-04T06:50:27;10.50;;;6.22;;
19776;SDS011;10047;42.490;26.012;2023-12-04T06:52:53;7.63;;;5.55;;
19776;SDS011;10047;42.490;26.012;2023-12-04T06:55:18;6.90;;;5.07;;
19776;SDS011;10047;42.490;26.012;2023-12-04T06:57:44;9.63;;;6.38;;
19776;SDS011;10047;42.490;26.012;2023-12-04T07:00:10;7.45;;;5.13;;
19776;SDS011;10047;42.490;26.012;2023-12-04T07:02:37;7.93;;;5.28;;
19776;SDS011;10047;42.490;26.012;2023-12-04T07:05:03;8.40;;;6.72;;
19776;SDS011;10047;42.490;26.012;2023-12-04T07:07:29;8.05;;;6.20;;
19776;SDS011;10047;42.490;26.012;2023-12-04T07:09:54;7.05;;;5.03;;
19776;SDS011;10047;42.490;26.012;2023-12-04T07:12:20;8.77;;;6.00;;
19776;SDS011;10047;42.490;26.012;2023-12-04T07:14:46;7.63;;;5.53;;
19776;SDS011;10047;42.490;26.012;2023-12-04T07:17:12;7.80;;;6.03;;
19776;SDS011;10047;42.490;26.012;2023-12-04T07:19:38;8.10;;;5.55;;
19776;SDS011;10047;42.490;26.012;2023-12-04T07:22:06;9.15;;;6.10;;
19776;SDS011;10047;42.490;26.012;2023-12-04T07:24:33;8.98;;;5.70;;
19776;SDS011;10047;42.490;26.012;2023-12-04T07:26:59;8.27;;;5.90;;
19776;SDS011;10047;42.490;26.012;2023-12-04T07:29:24;6.95;;;5.20;;
19776;SDS011;10047;42.490;26.012;2023-12-04T07:31:50;7.05;;;5.57;;
19776;SDS011;10047;42.490;26.012;2023-12-04T07:34:16;6.90;;;5.65;;
19776;SDS011;10047;42.490;26.012;2023-12-04T07:36:41;7.03;;;5.38;;
19776;SDS011;10047;42.490;26.012;2023-12-04T07:39:09;6.80;;;5.38;;
19776;SDS011;10047;42.490;26.012;2023-12-04T07:41:35;7.88;;;6.07;;
19776;SDS011;10047;42.490;26.012;2023-12-04T07:44:01;8.18;;;5.57;;
19776;SDS011;10047;42.490;26.012;2023-12-04T07:46:27;10.65;;;6.38;;
19776;SDS011;10047;42.490;26.012;2023-12-04T07:48:52;6.85;;;5.40;;
19776;SDS011;10047;42.490;26.012;2023-12-04T07:51:18;6.82;;;5.10;;
19776;SDS011;10047;42.490;26.012;2023-12-04T07:53:43;6.57;;;4.55;;
19776;SDS011;10047;42.490;26.012;2023-12-04T07:56:09;7.95;;;5.18;;
19776;SDS011;10047;42.490;26.012;2023-12-04T07:58:36;6.25;;;5.07;;
19776;SDS011;10047;42.490;26.012;2023-12-04T08:01:02;5.10;;;3.83;;
19776;SDS011;10047;42.490;26.012;2023-12-04T08:03:27;5.55;;;4.00;;
19776;SDS011;10047;42.490;26.012;2023-12-04T08:05:53;6.28;;;4.32;;
19776;SDS011;10047;42.490;26.012;2023-12-04T08:08:20;5.85;;;4.25;;
19776;SDS011;10047;42.490;26.012;2023-12-04T08:10:46;6.13;;;4.65;;
19776;SDS011;10047;42.490;26.012;2023-12-04T08:13:12;5.30;;;4.47;;
19776;SDS011;10047;42.490;26.012;2023-12-04T08:15:38;6.93;;;5.13;;
19776;SDS011;10047;42.490;26.012;2023-12-04T08:18:03;5.78;;;4.45;;
19776;SDS011;10047;42.490;26.012;2023-12-04T08:20:29;6.18;;;4.70;;
19776;SDS011;10047;42.490;26.012;2023-12-04T08:22:54;5.53;;;4.13;;
19776;SDS011;10047;42.490;26.012;2023-12-04T08:25:20;5.75;;;3.90;;
19776;SDS011;10047;42.490;26.012;2023-12-04T08:27:46;7.75;;;3.88;;
19776;SDS011;10047;42.490;26.012;2023-12-04T08:30:11;6.53;;;4.70;;
19776;SDS011;10047;42.490;26.012;2023-12-04T08:32:37;7.55;;;4.90;;
19776;SDS011;10047;42.490;26.012;2023-12-04T08:35:03;6.88;;;4.68;;
19776;SDS011;10047;42.490;26.012;2023-12-04T08:37:30;6.63;;;5.00;;
19776;SDS011;10047;42.490;26.012;2023-12-04T08:39:56;8.48;;;4.80;;
19776;SDS011;10047;42.490;26.012;2023-12-04T08:42:22;7.45;;;5.40;;
19776;SDS011;10047;42.490;26.012;2023-12-04T08:44:47;6.13;;;4.88;;
19776;SDS011;10047;42.490;26.012;2023-12-04T08:47:13;8.32;;;5.30;;
19776;SDS011;10047;42.490;26.012;2023-12-04T08:49:39;7.43;;;5.50;;
19776;SDS011;10047;42.490;26.012;2023-12-04T08:52:06;7.45;;;5.28;;
19776;SDS011;10047;42.490;26.012;2023-12-04T08:54:32;7.50;;;5.82;;
19776;SDS011;10047;42.490;26.012;2023-12-04T08:56:59;6.88;;;5.05;;
19776;SDS011;10047;42.490;26.012;2023-12-04T08:59:24;7.43;;;6.22;;
19776;SDS011;10047;42.490;26.012;2023-12-04T09:01:50;11.77;;;9.55;;
19776;SDS011;10047;42.490;26.012;2023-12-04T09:04:17;14.20;;;11.43;;
19776;SDS011;10047;42.490;26.012;2023-12-04T09:06:43;39.80;;;26.88;;
19776;SDS011;10047;42.490;26.012;2023-12-04T09:09:08;18.00;;;13.57;;
19776;SDS011;10047;42.490;26.012;2023-12-04T09:11:34;9.15;;;6.72;;
19776;SDS011;10047;42.490;26.012;2023-12-04T09:13:59;8.35;;;7.00;;
19776;SDS011;10047;42.490;26.012;2023-12-04T09:16:25;8.32;;;6.68;;
19776;SDS011;10047;42.490;26.012;2023-12-04T09:18:50;6.53;;;5.45;;
19776;SDS011;10047;42.490;26.012;2023-12-04T09:21:18;9.15;;;6.10;;
19776;SDS011;10047;42.490;26.012;2023-12-04T09:23:44;8.68;;;6.38;;
19776;SDS011;10047;42.490;26.012;2023-12-04T09:26:14;12.02;;;10.05;;
19776;SDS011;10047;42.490;26.012;2023-12-04T09:28:41;10.43;;;8.35;;
19776;SDS011;10047;42.490;26.012;2023-12-04T09:31:08;8.00;;;6.03;;
19776;SDS011;10047;42.490;26.012;2023-12-04T09:33:34;10.60;;;7.28;;
19776;SDS011;10047;42.490;26.012;2023-12-04T09:36:01;17.33;;;10.63;;
19776;SDS011;10047;42.490;26.012;2023-12-04T09:38:27;26.50;;;15.20;;
19776;SDS011;10047;42.490;26.012;2023-12-04T09:40:52;21.00;;;11.45;;
19776;SDS011;10047;42.490;26.012;2023-12-04T09:43:19;10.35;;;8.40;;
19776;SDS011;10047;42.490;26.012;2023-12-04T09:45:45;9.95;;;7.95;;
19776;SDS011;10047;42.490;26.012;2023-12-04T09:48:11;11.30;;;8.05;;
19776;SDS011;10047;42.490;26.012;2023-12-04T09:50:37;60.42;;;34.28;;
19776;SDS011;10047;42.490;26.012;2023-12-04T09:53:04;38.28;;;22.02;;
19776;SDS011;10047;42.490;26.012;2023-12-04T09:55:35;12.30;;;9.55;;
19776;SDS011;10047;42.490;26.012;2023-12-04T09:58:00;13.13;;;10.18;;
19776;SDS011;10047;42.490;26.012;2023-12-04T10:00:26;11.27;;;9.00;;
19776;SDS011;10047;42.490;26.012;2023-12-04T10:02:52;11.80;;;8.90;;
19776;SDS011;10047;42.490;26.012;2023-12-04T10:05:19;7.97;;;6.75;;
19776;SDS011;10047;42.490;26.012;2023-12-04T10:07:46;9.15;;;7.07;;
19776;SDS011;10047;42.490;26.012;2023-12-04T10:10:11;9.60;;;7.50;;
19776;SDS011;10047;42.490;26.012;2023-12-04T10:12:39;10.13;;;7.97;;
19776;SDS011;10047;42.490;26.012;2023-12-04T10:15:08;9.07;;;7.05;;
19776;SDS011;10047;42.490;26.012;2023-12-04T10:17:35;8.50;;;7.07;;
19776;SDS011;10047;42.490;26.012;2023-12-04T10:20:05;8.60;;;6.95;;
19776;SDS011;10047;42.490;26.012;2023-12-04T10:25:16;11.73;;;8.98;;
19776;SDS011;10047;42.490;26.012;2023-12-04T10:27:45;9.55;;;7.07;;
19776;SDS011;10047;42.490;26.012;2023-12-04T10:30:27;24.58;;;13.60;;
19776;SDS011;10047;42.490;26.012;2023-12-04T10:32:57;12.43;;;9.32;;
19776;SDS011;10047;42.490;26.012;2023-12-04T10:35:27;10.45;;;8.98;;
19776;SDS011;10047;42.490;26.012;2023-12-04T10:37:55;10.57;;;8.73;;
19776;SDS011;10047;42.490;26.012;2023-12-04T10:40:25;9.50;;;7.60;;
19776;SDS011;10047;42.490;26.012;2023-12-04T10:42:53;11.63;;;8.68;;
19776;SDS011;10047;42.490;26.012;2023-12-04T10:45:38;16.20;;;9.60;;
19776;SDS011;10047;42.490;26.012;2023-12-04T10:48:05;12.27;;;9.02;;
19776;SDS011;10047;42.490;26.012;2023-12-04T10:50:32;11.40;;;9.15;;
19776;SDS011;10047;42.490;26.012;2023-12-04T10:53:01;11.30;;;8.68;;
19776;SDS011;10047;42.490;26.012;2023-12-04T10:55:29;74.72;;;41.20;;
19776;SDS011;10047;42.490;26.012;2023-12-04T10:57:55;23.80;;;15.95;;
19776;SDS011;10047;42.490;26.012;2023-12-04T11:00:21;28.00;;;19.15;;
19776;SDS011;10047;42.490;26.012;2023-12-04T11:02:48;18.45;;;12.70;;
19776;SDS011;10047;42.490;26.012;2023-12-04T11:05:15;20.05;;;13.10;;
19776;SDS011;10047;42.490;26.012;2023-12-04T11:08:19;13.02;;;9.18;;
19776;SDS011;10047;42.490;26.012;2023-12-04T11:10:58;20.75;;;14.35;;
19776;SDS011;10047;42.490;26.012;2023-12-04T11:13:28;19.42;;;12.95;;
19776;SDS011;10047;42.490;26.012;2023-12-04T11:15:56;26.15;;;18.23;;
19776;SDS011;10047;42.490;26.012;2023-12-04T11:18:25;22.13;;;14.32;;
19776;SDS011;10047;42.490;26.012;2023-12-04T11:20:56;10.30;;;8.35;;
19776;SDS011;10047;42.490;26.012;2023-12-04T11:23:25;10.23;;;8.20;;
19776;SDS011;10047;42.490;26.012;2023-12-04T11:25:51;15.57;;;11.45;;
19776;SDS011;10047;42.490;26.012;2023-12-04T11:28:18;9.90;;;8.52;;
19776;SDS011;10047;42.490;26.012;2023-12-04T11:30:44;9.65;;;8.50;;
19776;SDS011;10047;42.490;26.012;2023-12-04T11:33:11;10.05;;;8.35;;
19776;SDS011;10047;42.490;26.012;2023-12-04T11:35:37;10.65;;;8.95;;
19776;SDS011;10047;42.490;26.012;2023-12-04T11:38:04;12.90;;;9.75;;
19776;SDS011;10047;42.490;26.012;2023-12-04T11:40:30;15.13;;;11.50;;
19776;SDS011;10047;42.490;26.012;2023-12-04T11:42:55;11.30;;;8.90;;
19776;SDS011;10047;42.490;26.012;2023-12-04T11:45:21;11.73;;;8.18;;
19776;SDS011;10047;42.490;26.012;2023-12-04T11:50:23;9.90;;;8.40;;
19776;SDS011;10047;42.490;26.012;2023-12-04T11:52:50;10.75;;;8.98;;
19776;SDS011;10047;42.490;26.012;2023-12-04T11:55:25;12.00;;;8.73;;
19776;SDS011;10047;42.490;26.012;2023-12-04T11:57:53;10.35;;;8.50;;
19776;SDS011;10047;42.490;26.012;2023-12-04T12:00:23;10.35;;;8.80;;
19776;SDS011;10047;42.490;26.012;2023-12-04T12:05:17;10.95;;;8.15;;
19776;SDS011;10047;42.490;26.012;2023-12-04T12:07:44;9.43;;;7.80;;
19776;SDS011;10047;42.490;26.012;2023-12-04T12:10:10;9.77;;;8.00;;
19776;SDS011;10047;42.490;26.012;2023-12-04T12:12:38;10.23;;;8.02;;
19776;SDS011;10047;42.490;26.012;2023-12-04T12:15:05;12.60;;;9.05;;
19776;SDS011;10047;42.490;26.012;2023-12-04T12:17:34;11.70;;;9.00;;
19776;SDS011;10047;42.490;26.012;2023-12-04T12:19:59;13.13;;;10.60;;
19776;SDS011;10047;42.490;26.012;2023-12-04T12:22:25;10.68;;;8.43;;
19776;SDS011;10047;42.490;26.012;2023-12-04T12:24:51;9.85;;;7.72;;
19776;SDS011;10047;42.490;26.012;2023-12-04T12:27:16;10.20;;;7.40;;
19776;SDS011;10047;42.490;26.012;2023-12-04T12:29:42;9.82;;;7.68;;
19776;SDS011;10047;42.490;26.012;2023-12-04T12:32:08;13.48;;;10.27;;
19776;SDS011;10047;42.490;26.012;2023-12-04T12:34:33;7.70;;;5.95;;
19776;SDS011;10047;42.490;26.012;2023-12-04T12:37:04;7.53;;;6.50;;
19776;SDS011;10047;42.490;26.012;2023-12-04T12:39:31;7.95;;;6.18;;
19776;SDS011;10047;42.490;26.012;2023-12-04T12:41:58;9.93;;;8.50;;
19776;SDS011;10047;42.490;26.012;2023-12-04T12:44:23;7.90;;;6.15;;
19776;SDS011;10047;42.490;26.012;2023-12-04T12:46:49;12.43;;;8.60;;
19776;SDS011;10047;42.490;26.012;2023-12-04T12:49:19;8.48;;;7.57;;
19776;SDS011;10047;42.490;26.012;2023-12-04T12:51:48;21.42;;;17.92;;
19776;SDS011;10047;42.490;26.012;2023-12-04T12:54:13;9.15;;;6.85;;
19776;SDS011;10047;42.490;26.012;2023-12-04T12:56:39;7.85;;;6.53;;
19776;SDS011;10047;42.490;26.012;2023-12-04T12:59:05;9.80;;;7.47;;
19776;SDS011;10047;42.490;26.012;2023-12-04T13:01:32;9.60;;;7.45;;
19776;SDS011;10047;42.490;26.012;2023-12-04T13:03:57;7.57;;;4.93;;
19776;SDS011;10047;42.490;26.012;2023-12-04T13:06:23;7.40;;;6.20;;
19776;SDS011;10047;42.490;26.012;2023-12-04T13:08:49;6.60;;;5.50;;
19776;SDS011;10047;42.490;26.012;2023-12-04T13:11:15;7.80;;;6.07;;
19776;SDS011;10047;42.490;26.012;2023-12-04T13:13:40;6.90;;;5.57;;
19776;SDS011;10047;42.490;26.012;2023-12-04T13:16:06;6.35;;;5.00;;
19776;SDS011;10047;42.490;26.012;2023-12-04T13:18:32;7.75;;;5.65;;
19776;SDS011;10047;42.490;26.012;2023-12-04T13:21:00;11.73;;;8.70;;
19776;SDS011;10047;42.490;26.012;2023-12-04T13:23:26;11.65;;;9.00;;
19776;SDS011;10047;42.490;26.012;2023-12-04T13:25:52;10.20;;;8.57;;
19776;SDS011;10047;42.490;26.012;2023-12-04T13:28:19;9.52;;;6.82;;
19776;SDS011;10047;42.490;26.012;2023-12-04T13:30:45;32.65;;;22.60;;
19776;SDS011;10047;42.490;26.012;2023-12-04T13:33:11;11.27;;;8.75;;
19776;SDS011;10047;42.490;26.012;2023-12-04T13:35:36;12.82;;;10.07;;
19776;SDS011;10047;42.490;26.012;2023-12-04T13:38:02;11.27;;;7.65;;
19776;SDS011;10047;42.490;26.012;2023-12-04T13:40:27;11.65;;;8.57;;
19776;SDS011;10047;42.490;26.012;2023-12-04T13:42:57;9.15;;;7.35;;
19776;SDS011;10047;42.490;26.012;2023-12-04T13:45:41;9.15;;;5.78;;
19776;SDS011;10047;42.490;26.012;2023-12-04T13:48:07;10.40;;;8.05;;
19776;SDS011;10047;42.490;26.012;2023-12-04T13:50:32;8.68;;;6.80;;
19776;SDS011;10047;42.490;26.012;2023-12-04T13:52:58;9.75;;;7.30;;
19776;SDS011;10047;42.490;26.012;2023-12-04T13:55:26;6.68;;;5.40;;
19776;SDS011;10047;42.490;26.012;2023-12-04T13:58:14;6.55;;;5.50;;
19776;SDS011;10047;42.490;26.012;2023-12-04T14:00:58;8.40;;;5.72;;
19776;SDS011;10047;42.490;26.012;2023-12-04T14:03:25;7.50;;;5.70;;
19776;SDS011;10047;42.490;26.012;2023-12-04T14:05:51;9.55;;;6.65;;
19776;SDS011;10047;42.490;26.012;2023-12-04T14:08:16;12.48;;;9.63;;
19776;SDS011;10047;42.490;26.012;2023-12-04T14:10:42;10.25;;;8.25;;
19776;SDS011;10047;42.490;26.012;2023-12-04T14:13:09;8.88;;;7.50;;
19776;SDS011;10047;42.490;26.012;2023-12-04T14:15:34;11.23;;;8.80;;
19776;SDS011;10047;42.490;26.012;2023-12-04T14:18:00;11.50;;;9.57;;
19776;SDS011;10047;42.490;26.012;2023-12-04T14:20:25;22.92;;;15.95;;
19776;SDS011;10047;42.490;26.012;2023-12-04T14:22:51;20.98;;;15.38;;
19776;SDS011;10047;42.490;26.012;2023-12-04T14:25:16;16.63;;;12.93;;
19776;SDS011;10047;42.490;26.012;2023-12-04T14:27:42;14.52;;;11.73;;
19776;SDS011;10047;42.490;26.012;2023-12-04T14:30:10;22.33;;;14.68;;
19776;SDS011;10047;42.490;26.012;2023-12-04T14:32:36;17.13;;;12.60;;
19776;SDS011;10047;42.490;26.012;2023-12-04T14:35:05;18.30;;;12.55;;